createdAt,value
2023-09-12T00:00:01.626Z,1.95
2023-09-12T00:02:39.890Z,2.80
2023-09-12T00:05:08.885Z,2.40
2023-09-12T00:07:37.207Z,1.70
2023-09-12T00:10:07.347Z,2.23
2023-09-12T00:12:35.128Z,1.80
2023-09-12T00:15:05.467Z,2.07
2023-09-12T00:17:33.334Z,1.70
2023-09-12T00:20:01.124Z,2.23
2023-09-12T00:22:28.873Z,1.77
2023-09-12T00:24:56.633Z,3.10
2023-09-12T00:27:25.753Z,2.90
2023-09-12T00:29:53.640Z,3.27
2023-09-12T00:32:21.404Z,2.87
2023-09-12T00:34:49.185Z,2.03
2023-09-12T00:37:16.964Z,1.57
2023-09-12T00:39:44.814Z,3.00
2023-09-12T00:42:12.652Z,2.43
2023-09-12T00:44:41.768Z,2.83
2023-09-12T00:47:12.126Z,1.70
2023-09-12T00:49:41.492Z,2.10
2023-09-12T00:52:10.121Z,1.90
2023-09-12T00:54:37.938Z,2.07
2023-09-12T00:57:06.053Z,2.33
2023-09-12T00:59:34.452Z,2.50
2023-09-12T01:02:04.028Z,1.90
2023-09-12T01:04:35.314Z,1.93
2023-09-12T01:07:05.024Z,1.70
2023-09-12T01:09:33.105Z,3.53
2023-09-12T01:12:01.761Z,2.67
2023-09-12T01:14:32.968Z,3.47
2023-09-12T01:17:02.260Z,2.80
2023-09-12T01:19:31.620Z,2.10
2023-09-12T01:22:29.832Z,2.30
2023-09-12T01:25:36.160Z,2.33
2023-09-12T01:28:08.082Z,2.20
2023-09-12T01:30:37.736Z,2.50
2023-09-12T01:33:06.588Z,2.30
2023-09-12T01:35:34.591Z,2.10
2023-09-12T01:38:02.679Z,1.90
2023-09-12T01:40:36.776Z,2.03
2023-09-12T01:43:07.062Z,2.27
2023-09-12T01:45:35.433Z,2.00
2023-09-12T01:48:05.088Z,2.10
2023-09-12T01:50:33.513Z,2.27
2023-09-12T01:53:02.175Z,2.23
2023-09-12T01:55:30.925Z,2.70
2023-09-12T01:57:59.131Z,2.33
2023-09-12T02:00:28.595Z,3.63
2023-09-12T02:02:56.880Z,2.65
2023-09-12T02:05:24.764Z,2.20
2023-09-12T02:07:52.670Z,2.63
2023-09-12T02:10:20.593Z,1.97
2023-09-12T02:12:48.361Z,2.13
2023-09-12T02:15:16.711Z,2.30
2023-09-12T02:17:46.056Z,2.10
2023-09-12T02:20:13.862Z,2.20
2023-09-12T02:22:41.774Z,2.27
2023-09-12T02:25:10.248Z,2.43
2023-09-12T02:27:38.285Z,2.93
2023-09-12T02:30:07.621Z,3.37
2023-09-12T02:32:35.778Z,2.90
2023-09-12T02:35:05.493Z,3.30
2023-09-12T02:37:33.258Z,3.70
2023-09-12T02:40:01.362Z,3.07
2023-09-12T02:42:29.109Z,2.70
2023-09-12T02:44:56.927Z,2.50
2023-09-12T02:47:24.769Z,2.63
2023-09-12T02:49:52.529Z,2.37
2023-09-12T02:52:21.790Z,2.83
2023-09-12T02:54:49.752Z,2.47
2023-09-12T02:57:17.858Z,2.73
2023-09-12T02:59:46.523Z,2.80
2023-09-12T03:02:14.296Z,2.60
2023-09-12T03:04:42.260Z,2.27
2023-09-12T03:07:09.985Z,2.50
2023-09-12T03:09:39.639Z,2.30
2023-09-12T03:12:08.011Z,2.93
2023-09-12T03:14:36.541Z,2.63
2023-09-12T03:17:04.956Z,2.60
2023-09-12T03:19:34.101Z,2.77
2023-09-12T03:22:01.913Z,2.53
2023-09-12T03:24:30.373Z,2.33
2023-09-12T03:26:59.592Z,2.30
2023-09-12T03:29:27.696Z,3.07
2023-09-12T03:31:55.663Z,3.27
2023-09-12T03:34:23.700Z,2.67
2023-09-12T03:36:51.601Z,2.30
2023-09-12T03:39:19.543Z,2.60
2023-09-12T03:41:47.419Z,2.93
2023-09-12T03:44:16.638Z,2.80
2023-09-12T03:46:44.734Z,3.20
2023-09-12T03:49:13.492Z,2.83
2023-09-12T03:51:41.640Z,2.50
2023-09-12T03:54:09.533Z,2.50
2023-09-12T03:56:37.434Z,2.93
2023-09-12T03:59:05.311Z,3.23
2023-09-12T04:01:34.652Z,2.73
2023-09-12T04:04:04.525Z,3.60
2023-09-12T04:06:32.654Z,3.17
2023-09-12T04:09:00.446Z,2.70
2023-09-12T04:11:43.862Z,2.90
2023-09-12T04:14:13.943Z,3.20
2023-09-12T04:16:43.188Z,3.30
2023-09-12T04:19:11.084Z,3.20
2023-09-12T04:21:39.582Z,3.20
2023-09-12T04:24:08.521Z,4.13
2023-09-12T04:26:37.073Z,4.63
2023-09-12T04:29:04.953Z,4.17
2023-09-12T04:31:35.737Z,3.93
2023-09-12T04:34:05.270Z,3.83
2023-09-12T04:36:33.114Z,4.07
2023-09-12T04:39:01.488Z,3.80
2023-09-12T04:41:29.374Z,3.93
2023-09-12T04:43:58.159Z,3.70
2023-09-12T04:46:25.981Z,3.23
2023-09-12T04:48:53.875Z,2.97
2023-09-12T04:51:23.166Z,3.40
2023-09-12T04:53:52.927Z,3.10
2023-09-12T04:56:21.389Z,4.00
2023-09-12T04:58:49.480Z,4.13
2023-09-12T05:01:17.535Z,3.60
2023-09-12T05:03:45.484Z,3.40
2023-09-12T05:06:14.441Z,3.67
2023-09-12T05:08:44.445Z,3.30
2023-09-12T05:11:12.657Z,3.60
2023-09-12T05:13:40.984Z,3.00
2023-09-12T05:16:08.859Z,2.70
2023-09-12T05:18:36.704Z,4.20
2023-09-12T05:21:04.889Z,3.03
2023-09-12T05:23:33.060Z,3.03
2023-09-12T05:26:02.688Z,3.20
2023-09-12T05:28:30.520Z,3.40
2023-09-12T05:30:58.541Z,3.10
2023-09-12T05:33:26.817Z,3.30
2023-09-12T05:35:55.441Z,3.27
2023-09-12T05:38:24.061Z,3.60
2023-09-12T05:40:52.025Z,3.70
2023-09-12T05:43:21.525Z,2.80
2023-09-12T05:45:49.708Z,3.67
2023-09-12T05:48:17.653Z,3.93
2023-09-12T05:50:45.658Z,4.03
2023-09-12T05:53:13.533Z,3.93
2023-09-12T05:55:41.246Z,4.53
2023-09-12T05:58:09.031Z,4.17
2023-09-12T06:00:39.060Z,4.47
2023-09-12T06:03:06.956Z,4.20
2023-09-12T06:05:34.801Z,4.97
2023-09-12T06:08:03.139Z,5.63
2023-09-12T06:10:30.945Z,4.67
2023-09-12T06:12:58.706Z,4.60
2023-09-12T06:15:26.820Z,4.70
2023-09-12T06:17:56.218Z,4.93
2023-09-12T06:20:24.522Z,4.50
2023-09-12T06:22:52.588Z,4.30
2023-09-12T06:25:20.498Z,3.87
2023-09-12T06:27:48.442Z,4.70
2023-09-12T06:30:16.560Z,4.67
2023-09-12T06:32:44.309Z,4.80
2023-09-12T06:35:13.662Z,4.80
2023-09-12T06:37:41.400Z,4.90
2023-09-12T06:40:10.171Z,5.00
2023-09-12T06:42:37.986Z,4.43
2023-09-12T06:45:06.347Z,5.10
2023-09-12T06:47:34.106Z,6.17
2023-09-12T06:50:01.950Z,5.03
2023-09-12T06:52:31.002Z,4.70
2023-09-12T06:54:59.696Z,5.17
2023-09-12T06:57:27.476Z,5.40
2023-09-12T06:59:55.232Z,5.90
2023-09-12T07:02:23.018Z,5.17
2023-09-12T07:04:50.795Z,6.77
2023-09-12T07:07:18.565Z,4.97
2023-09-12T07:09:48.405Z,4.70
2023-09-12T07:12:16.193Z,4.67
2023-09-12T07:14:43.927Z,4.67
2023-09-12T07:17:11.661Z,5.10
2023-09-12T07:19:39.715Z,5.25
2023-09-12T07:22:07.454Z,4.63
2023-09-12T07:24:35.197Z,4.60
2023-09-12T07:27:04.402Z,4.10
2023-09-12T07:29:32.132Z,3.90
2023-09-12T07:32:01.278Z,4.17
2023-09-12T07:34:29.314Z,4.03
2023-09-12T07:36:57.054Z,4.30
2023-09-12T07:39:24.868Z,4.40
2023-09-12T07:41:52.696Z,4.10
2023-09-12T07:44:22.147Z,4.70
2023-09-12T07:46:49.958Z,5.70
2023-09-12T07:49:17.784Z,4.78
2023-09-12T07:51:45.567Z,4.80
2023-09-12T07:54:13.435Z,5.30
2023-09-12T07:56:44.047Z,6.03
2023-09-12T07:59:13.300Z,8.43
2023-09-12T08:01:42.596Z,4.72
2023-09-12T08:04:10.411Z,4.80
2023-09-12T08:06:55.324Z,5.03
2023-09-12T08:09:25.581Z,6.35
2023-09-12T08:11:53.343Z,5.13
2023-09-12T08:14:22.403Z,5.10
2023-09-12T08:16:51.574Z,4.68
2023-09-12T08:19:20.015Z,5.10
2023-09-12T08:21:48.106Z,4.72
2023-09-12T08:24:15.980Z,3.97
2023-09-12T08:26:46.202Z,4.82
2023-09-12T08:29:13.954Z,3.72
2023-09-12T08:31:41.706Z,3.13
2023-09-12T08:34:10.924Z,3.28
2023-09-12T08:36:38.685Z,2.85
2023-09-12T08:39:09.379Z,3.38
2023-09-12T08:41:37.292Z,3.15
2023-09-12T08:44:06.913Z,2.78
2023-09-12T08:46:34.716Z,2.78
2023-09-12T08:49:03.922Z,2.83
2023-09-12T08:51:33.434Z,2.70
2023-09-12T08:54:01.870Z,2.42
2023-09-12T08:56:29.943Z,3.13
2023-09-12T08:58:58.173Z,2.50
2023-09-12T09:01:28.841Z,2.75
2023-09-12T09:03:57.197Z,2.53
2023-09-12T09:06:29.014Z,2.67
2023-09-12T09:08:58.610Z,3.63
2023-09-12T09:11:28.720Z,2.08
2023-09-12T09:13:57.263Z,3.20
2023-09-12T09:16:25.531Z,2.33
2023-09-12T09:18:59.210Z,2.53
2023-09-12T09:21:28.913Z,2.33
2023-09-12T09:23:59.998Z,2.08
2023-09-12T09:26:41.802Z,1.92
2023-09-12T09:29:11.721Z,2.28
2023-09-12T09:31:43.225Z,2.25
2023-09-12T09:34:17.298Z,1.98
2023-09-12T09:36:50.560Z,2.17
2023-09-12T09:39:20.354Z,2.20
2023-09-12T09:41:49.869Z,2.00
2023-09-12T09:44:17.804Z,3.22
2023-09-12T09:46:46.390Z,1.92
2023-09-12T09:49:16.671Z,2.45
2023-09-12T09:51:47.255Z,1.90
2023-09-12T09:54:15.886Z,1.98
2023-09-12T09:56:49.614Z,3.75
2023-09-12T09:59:18.358Z,2.67
2023-09-12T10:01:47.213Z,1.88
2023-09-12T10:04:15.814Z,2.13
2023-09-12T10:06:46.484Z,2.00
2023-09-12T10:09:16.316Z,2.00
2023-09-12T10:11:48.345Z,2.00
2023-09-12T10:14:20.435Z,2.17
2023-09-12T10:16:50.221Z,1.80
2023-09-12T10:19:22.797Z,1.98
2023-09-12T10:21:56.320Z,1.88
2023-09-12T10:24:28.116Z,1.70
2023-09-12T10:26:57.136Z,1.67
2023-09-12T10:29:26.365Z,1.60
2023-09-12T10:31:54.193Z,1.48
2023-09-12T10:34:24.089Z,1.60
2023-09-12T10:36:53.331Z,1.50
2023-09-12T10:39:23.126Z,1.65
2023-09-12T10:41:53.811Z,1.50
2023-09-12T10:44:23.610Z,1.40
2023-09-12T10:46:56.638Z,1.50
2023-09-12T10:49:27.744Z,1.20
2023-09-12T10:51:57.088Z,1.30
2023-09-12T10:54:26.546Z,1.30
2023-09-12T10:57:07.243Z,0.95
2023-09-12T10:59:36.722Z,1.35
2023-09-12T11:02:36.348Z,1.65
2023-09-12T11:05:06.523Z,1.25
2023-09-12T11:07:45.443Z,1.27
2023-09-12T11:10:21.003Z,1.35
2023-09-12T11:12:51.169Z,1.60
2023-09-12T11:15:20.498Z,1.52
2023-09-12T11:17:50.903Z,1.60
2023-09-12T11:20:19.621Z,1.40
2023-09-12T11:22:49.404Z,1.67
2023-09-12T11:25:23.826Z,1.60
2023-09-12T11:28:07.460Z,1.70
2023-09-12T11:30:35.947Z,1.77
2023-09-12T11:33:08.043Z,1.90
2023-09-12T11:35:41.945Z,1.75
2023-09-12T11:38:12.502Z,1.77
2023-09-12T11:40:47.714Z,1.70
2023-09-12T11:43:26.514Z,1.70
2023-09-12T11:45:56.329Z,2.53
2023-09-12T11:48:25.724Z,1.60
2023-09-12T11:50:55.434Z,1.98
2023-09-12T11:53:26.499Z,1.95
2023-09-12T11:55:58.730Z,1.70
2023-09-12T11:58:28.270Z,1.70
2023-09-12T12:00:57.622Z,1.85
2023-09-12T12:03:28.656Z,1.80
2023-09-12T12:05:57.922Z,1.95
2023-09-12T12:10:57.385Z,1.45
2023-09-12T12:13:25.213Z,2.05
2023-09-12T12:15:53.139Z,1.67
2023-09-12T12:18:21.327Z,1.70
2023-09-12T12:20:50.571Z,2.13
2023-09-12T12:23:18.342Z,1.73
2023-09-12T12:25:46.108Z,1.70
2023-09-12T12:28:14.019Z,1.77
2023-09-12T12:30:42.067Z,1.75
2023-09-12T12:33:52.027Z,1.88
2023-09-12T12:36:04.230Z,1.70
2023-09-12T12:38:36.605Z,1.60
2023-09-12T12:41:05.672Z,1.50
2023-09-12T12:43:33.610Z,1.58
2023-09-12T12:46:01.402Z,1.60
2023-09-12T12:48:33.256Z,1.92
2023-09-12T12:51:14.234Z,3.05
2023-09-12T12:53:52.320Z,2.17
2023-09-12T12:56:23.737Z,2.03
2023-09-12T12:58:53.026Z,2.38
2023-09-12T13:01:21.192Z,1.77
2023-09-12T13:03:51.170Z,1.83
2023-09-12T13:06:20.855Z,1.80
2023-09-12T13:08:50.293Z,2.20
2023-09-12T13:11:19.053Z,2.40
2023-09-12T13:13:49.149Z,1.88
2023-09-12T13:16:17.980Z,1.88
2023-09-12T13:18:46.314Z,1.60
2023-09-12T13:21:14.677Z,2.92
2023-09-12T13:23:43.943Z,1.98
2023-09-12T13:26:12.228Z,1.70
2023-09-12T13:28:40.101Z,1.60
2023-09-12T13:31:07.994Z,2.03
2023-09-12T13:33:35.938Z,1.90
2023-09-12T13:36:03.728Z,1.50
2023-09-12T13:38:31.505Z,1.48
2023-09-12T13:41:00.605Z,1.55
2023-09-12T13:43:29.286Z,1.35
2023-09-12T13:45:57.168Z,1.85
2023-09-12T13:48:25.525Z,1.52
2023-09-12T13:50:53.290Z,1.40
2023-09-12T13:53:21.032Z,1.67
2023-09-12T13:55:49.343Z,1.20
2023-09-12T13:58:19.016Z,1.30
2023-09-12T14:00:46.833Z,1.27
2023-09-12T14:03:14.938Z,1.13
2023-09-12T14:05:43.433Z,1.40
2023-09-12T14:08:12.329Z,1.00
2023-09-12T14:10:40.752Z,1.10
2023-09-12T14:13:21.329Z,1.40
2023-09-12T14:15:52.438Z,1.10
2023-09-12T14:18:22.291Z,2.25
2023-09-12T14:20:53.720Z,0.88
2023-09-12T14:23:23.111Z,1.20
2023-09-12T14:25:51.475Z,1.00
2023-09-12T14:28:19.547Z,1.15
2023-09-12T14:30:47.601Z,1.20
2023-09-12T14:33:18.510Z,0.90
2023-09-12T14:35:46.851Z,1.10
2023-09-12T14:38:14.962Z,0.90
2023-09-12T14:40:45.476Z,0.90
2023-09-12T14:43:14.475Z,1.00
2023-09-12T14:45:42.686Z,1.10
2023-09-12T14:48:10.576Z,1.10
2023-09-12T14:50:43.550Z,0.98
2023-09-12T14:53:14.037Z,0.90
2023-09-12T14:55:42.027Z,1.30
2023-09-12T14:58:09.912Z,1.58
2023-09-12T15:00:39.066Z,0.90
2023-09-12T15:03:07.196Z,0.90
2023-09-12T15:05:35.147Z,1.17
2023-09-12T15:08:04.673Z,0.88
2023-09-12T15:10:32.777Z,0.77
2023-09-12T15:13:00.637Z,0.85
2023-09-12T15:15:28.824Z,1.08
2023-09-12T15:17:58.025Z,1.27
2023-09-12T15:20:25.818Z,0.95
2023-09-12T15:22:53.538Z,0.80
2023-09-12T15:25:22.663Z,1.00
2023-09-12T15:27:50.437Z,0.82
2023-09-12T15:30:18.414Z,1.10
2023-09-12T15:32:46.822Z,0.88
2023-09-12T15:35:14.600Z,0.90
2023-09-12T15:37:42.327Z,1.33
2023-09-12T15:40:11.333Z,1.00
2023-09-12T15:42:40.485Z,1.00
2023-09-12T15:45:11.026Z,0.90
2023-09-12T15:47:39.564Z,0.80
2023-09-12T15:50:08.378Z,1.08
2023-09-12T15:52:38.690Z,0.85
2023-09-12T15:55:07.214Z,1.23
2023-09-12T15:57:36.657Z,0.80
2023-09-12T16:00:07.865Z,1.20
2023-09-12T16:02:40.654Z,0.98
2023-09-12T16:05:09.813Z,1.00
2023-09-12T16:07:38.071Z,1.10
2023-09-12T16:10:08.793Z,0.95
2023-09-12T16:12:36.911Z,1.48
2023-09-12T16:15:08.012Z,1.00
2023-09-12T16:17:38.311Z,1.38
2023-09-12T16:20:09.692Z,0.95
2023-09-12T16:22:37.541Z,1.27
2023-09-12T16:25:06.014Z,2.08
2023-09-12T16:27:34.335Z,1.25
2023-09-12T16:30:04.015Z,1.33
2023-09-12T16:32:33.111Z,1.00
2023-09-12T16:35:01.516Z,1.42
2023-09-12T16:37:30.050Z,1.30
2023-09-12T16:39:58.244Z,1.20
2023-09-12T16:42:27.928Z,1.30
2023-09-12T16:44:55.677Z,1.45
2023-09-12T16:47:23.391Z,1.60
2023-09-12T16:49:52.465Z,1.33
2023-09-12T16:52:20.242Z,1.50
2023-09-12T16:54:48.035Z,1.30
2023-09-12T16:57:16.118Z,3.00
2023-09-12T16:59:44.331Z,1.40
2023-09-12T17:02:13.059Z,1.50
2023-09-12T17:04:43.679Z,1.60
2023-09-12T17:07:13.571Z,1.50
2023-09-12T17:09:41.932Z,1.40
2023-09-12T17:12:10.603Z,1.80
2023-09-12T17:14:38.378Z,1.60
2023-09-12T17:17:06.873Z,1.55
2023-09-12T17:19:34.618Z,1.60
2023-09-12T17:22:02.614Z,1.52
2023-09-12T17:24:31.746Z,1.67
2023-09-12T17:27:00.090Z,1.60
2023-09-12T17:29:27.826Z,1.50
2023-09-12T17:31:55.632Z,1.90
2023-09-12T17:34:41.014Z,1.70
2023-09-12T17:37:08.991Z,1.60
2023-09-12T17:39:38.748Z,1.60
2023-09-12T17:42:07.384Z,1.73
2023-09-12T17:44:35.317Z,1.60
2023-09-12T17:47:03.740Z,1.50
2023-09-12T17:49:33.838Z,1.50
2023-09-12T17:52:02.524Z,1.45
2023-09-12T17:54:30.451Z,1.70
2023-09-12T17:56:59.628Z,2.20
2023-09-12T17:59:27.917Z,1.80
2023-09-12T18:01:55.832Z,2.00
2023-09-12T18:04:23.836Z,2.08
2023-09-12T18:06:51.892Z,2.03
2023-09-12T18:09:19.926Z,1.90
2023-09-12T18:11:48.306Z,1.70
2023-09-12T18:14:17.980Z,1.83
2023-09-12T18:16:46.135Z,1.92
2023-09-12T18:19:14.602Z,1.90
2023-09-12T18:21:42.507Z,2.00
2023-09-12T18:24:10.292Z,2.28
2023-09-12T18:26:38.159Z,1.90
2023-09-12T18:29:06.370Z,2.05
2023-09-12T18:31:35.527Z,2.22
2023-09-12T18:34:03.484Z,2.33
2023-09-12T18:36:31.390Z,1.92
2023-09-12T18:38:59.167Z,2.03
2023-09-12T18:41:27.067Z,2.20
2023-09-12T18:43:54.981Z,1.92
2023-09-12T18:46:23.001Z,1.90
2023-09-12T18:48:52.353Z,1.95
2023-09-12T18:51:20.363Z,2.00
2023-09-12T18:53:48.111Z,2.00
2023-09-12T18:56:16.175Z,1.88
2023-09-12T18:58:44.599Z,1.90
2023-09-12T19:01:12.564Z,1.90
2023-09-12T19:03:41.698Z,2.35
2023-09-12T19:06:10.959Z,2.15
2023-09-12T19:08:41.792Z,2.40
2023-09-12T19:11:10.429Z,2.03
2023-09-12T19:13:38.285Z,2.13
2023-09-12T19:16:06.156Z,1.98
2023-09-12T19:18:33.993Z,2.00
2023-09-12T19:21:01.778Z,1.90
2023-09-12T19:23:30.857Z,1.65
2023-09-12T19:25:58.593Z,2.10
2023-09-12T19:28:26.339Z,1.60
2023-09-12T19:30:54.202Z,2.00
2023-09-12T19:33:22.088Z,2.22
2023-09-12T19:35:49.835Z,2.20
2023-09-12T19:38:17.582Z,2.30
2023-09-12T19:40:46.759Z,1.90
2023-09-12T19:43:14.549Z,1.70
2023-09-12T19:45:42.400Z,1.77
2023-09-12T19:48:12.388Z,1.80
2023-09-12T19:50:40.331Z,1.98
2023-09-12T19:53:08.103Z,1.88
2023-09-12T19:55:35.890Z,2.10
2023-09-12T19:58:05.412Z,1.90
2023-09-12T20:00:33.809Z,1.90
2023-09-12T20:03:01.636Z,2.15
2023-09-12T20:05:29.432Z,1.73
2023-09-12T20:07:57.259Z,2.78
2023-09-12T20:10:25.048Z,2.05
2023-09-12T20:12:53.003Z,2.03
2023-09-12T20:15:23.082Z,2.00
2023-09-12T20:17:52.723Z,2.30
2023-09-12T20:20:22.893Z,2.20
2023-09-12T20:22:51.019Z,2.40
2023-09-12T20:25:20.413Z,2.35
2023-09-12T20:27:48.416Z,1.98
2023-09-12T20:30:16.760Z,2.30
2023-09-12T20:32:57.756Z,1.92
2023-09-12T20:35:27.681Z,2.30
2023-09-12T20:37:56.950Z,2.20
2023-09-12T20:40:25.217Z,2.00
2023-09-12T20:42:53.036Z,2.30
2023-09-12T20:45:20.904Z,1.80
2023-09-12T20:47:50.404Z,1.80
2023-09-12T20:50:29.943Z,1.90
2023-09-12T20:53:00.183Z,2.28
2023-09-12T20:55:28.457Z,2.13
2023-09-12T20:57:56.236Z,2.10
2023-09-12T21:00:26.179Z,2.17
2023-09-12T21:02:55.522Z,2.40
2023-09-12T21:05:24.695Z,1.90
2023-09-12T21:07:53.121Z,2.17
2023-09-12T21:10:20.989Z,1.92
2023-09-12T21:12:48.768Z,2.00
2023-09-12T21:15:16.671Z,1.90
2023-09-12T21:17:44.435Z,1.70
2023-09-12T21:20:13.742Z,1.90
2023-09-12T21:22:41.493Z,1.97
2023-09-12T21:25:09.691Z,1.55
2023-09-12T21:27:37.987Z,1.80
2023-09-12T21:30:06.837Z,2.10
2023-09-12T21:32:34.822Z,1.90
2023-09-12T21:35:11.844Z,2.13
2023-09-12T21:37:40.918Z,1.88
2023-09-12T21:40:09.946Z,1.75
2023-09-12T21:42:37.949Z,1.90
2023-09-12T21:45:06.940Z,2.33
2023-09-12T21:47:39.334Z,2.17
2023-09-12T21:50:08.112Z,2.15
2023-09-12T21:52:36.276Z,2.40
2023-09-12T21:55:08.363Z,2.03
2023-09-12T21:57:36.901Z,1.90
2023-09-12T22:00:17.541Z,1.80
2023-09-12T22:02:46.017Z,1.83
2023-09-12T22:05:14.070Z,2.33
2023-09-12T22:07:41.830Z,2.47
2023-09-12T22:10:11.381Z,2.17
2023-09-12T22:12:39.640Z,2.30
2023-09-12T22:15:08.700Z,2.30
2023-09-12T22:17:36.719Z,2.40
2023-09-12T22:20:05.650Z,2.17
2023-09-12T22:22:33.757Z,2.30
2023-09-12T22:25:01.592Z,2.10
2023-09-12T22:27:30.960Z,2.23
2023-09-12T22:29:58.905Z,2.07
2023-09-12T22:32:26.616Z,2.42
2023-09-12T22:34:54.303Z,2.47
2023-09-12T22:37:22.036Z,2.80
2023-09-12T22:39:51.369Z,2.10
2023-09-12T22:42:19.305Z,2.33
2023-09-12T22:44:48.360Z,2.53
2023-09-12T22:47:16.455Z,1.83
2023-09-12T22:49:44.315Z,2.25
2023-09-12T22:52:12.549Z,2.13
2023-09-12T22:54:40.392Z,2.60
2023-09-12T22:57:08.498Z,2.70
2023-09-12T22:59:36.423Z,2.33
2023-09-12T23:02:05.961Z,2.60
2023-09-12T23:04:33.992Z,2.63
2023-09-12T23:07:03.485Z,2.33
2023-09-12T23:09:31.409Z,2.60
2023-09-12T23:11:59.289Z,2.50
2023-09-12T23:14:27.296Z,3.30
2023-09-12T23:16:55.090Z,2.77
2023-09-12T23:19:24.229Z,2.70
2023-09-12T23:21:51.970Z,2.47
2023-09-12T23:24:19.721Z,2.37
2023-09-12T23:26:47.450Z,2.73
2023-09-12T23:29:15.167Z,2.30
2023-09-12T23:31:43.326Z,2.33
2023-09-12T23:34:11.144Z,2.53
2023-09-12T23:36:40.307Z,2.60
2023-09-12T23:39:08.090Z,2.27
2023-09-12T23:41:35.891Z,2.37
2023-09-12T23:44:03.689Z,2.17
2023-09-12T23:46:31.766Z,2.10
2023-09-12T23:49:00.628Z,2.17
2023-09-12T23:51:28.616Z,2.40
2023-09-12T23:53:57.740Z,2.40
2023-09-12T23:56:25.739Z,2.10
2023-09-12T23:58:53.475Z,2.10
